createdAt,value
2023-04-09T00:01:08.255Z,3.40
2023-04-09T00:03:36.405Z,3.40
2023-04-09T00:06:04.410Z,3.40
2023-04-09T00:08:31.718Z,3.40
2023-04-09T00:10:59.636Z,3.40
2023-04-09T00:13:38.441Z,3.30
2023-04-09T00:16:07.390Z,3.30
2023-04-09T00:18:34.416Z,3.20
2023-04-09T00:21:01.321Z,3.20
2023-04-09T00:23:28.326Z,3.20
2023-04-09T00:25:55.354Z,3.30
2023-04-09T00:28:22.287Z,3.30
2023-04-09T00:30:49.284Z,3.40
2023-04-09T00:33:16.210Z,3.40
2023-04-09T00:35:43.267Z,3.40
2023-04-09T00:38:10.611Z,3.40
2023-04-09T00:40:37.474Z,3.20
2023-04-09T00:43:04.352Z,3.10
2023-04-09T00:45:32.038Z,3.10
2023-04-09T00:47:59.497Z,3.10
2023-04-09T00:50:26.534Z,3.20
2023-04-09T00:52:53.634Z,3.30
2023-04-09T00:55:22.496Z,3.30
2023-04-09T00:57:49.427Z,3.30
2023-04-09T01:00:16.674Z,3.30
2023-04-09T01:02:44.581Z,3.20
2023-04-09T01:05:12.911Z,3.20
2023-04-09T01:07:39.910Z,3.20
2023-04-09T01:10:22.890Z,3.20
2023-04-09T01:13:07.551Z,3.20
2023-04-09T01:15:40.048Z,2.90
2023-04-09T01:18:12.363Z,3.00
2023-04-09T01:20:58.233Z,2.80
2023-04-09T01:23:45.487Z,2.70
2023-04-09T01:26:37.080Z,2.70
2023-04-09T01:29:05.950Z,2.70
2023-04-09T01:31:36.801Z,2.70
2023-04-09T01:34:05.055Z,2.70
2023-04-09T01:36:32.894Z,2.60
2023-04-09T01:39:02.342Z,2.70
2023-04-09T01:41:32.678Z,2.70
2023-04-09T01:44:04.052Z,2.80
2023-04-09T01:46:32.370Z,2.70
2023-04-09T01:49:00.121Z,2.70
2023-04-09T01:51:27.501Z,2.70
2023-04-09T01:53:54.607Z,2.70
2023-04-09T01:56:21.661Z,2.60
2023-04-09T01:58:48.635Z,2.70
2023-04-09T02:01:32.823Z,2.70
2023-04-09T02:04:11.506Z,2.80
2023-04-09T02:06:43.953Z,2.60
2023-04-09T02:09:12.723Z,2.50
2023-04-09T02:11:42.454Z,2.30
2023-04-09T02:14:11.521Z,2.40
2023-04-09T02:16:40.156Z,2.40
2023-04-09T02:19:07.069Z,2.50
2023-04-09T02:21:34.115Z,2.50
2023-04-09T02:24:01.249Z,2.60
2023-04-09T02:26:28.239Z,2.60
2023-04-09T02:28:55.147Z,2.60
2023-04-09T02:31:22.385Z,2.60
2023-04-09T02:33:51.497Z,2.60
2023-04-09T02:36:18.396Z,2.50
2023-04-09T02:38:45.685Z,2.50
2023-04-09T02:41:12.660Z,2.30
2023-04-09T02:43:39.586Z,2.20
2023-04-09T02:46:08.515Z,2.10
2023-04-09T02:48:35.402Z,2.20
2023-04-09T02:51:04.730Z,2.10
2023-04-09T02:53:31.742Z,2.20
2023-04-09T02:55:58.701Z,2.20
2023-04-09T02:58:25.569Z,2.10
2023-04-09T03:00:52.644Z,2.10
2023-04-09T03:03:19.679Z,2.10
2023-04-09T03:05:46.815Z,2.20
2023-04-09T03:08:13.950Z,2.20
2023-04-09T03:10:40.899Z,2.10
2023-04-09T03:13:07.822Z,2.20
2023-04-09T03:15:34.908Z,2.10
2023-04-09T03:18:01.836Z,2.10
2023-04-09T03:20:28.727Z,2.10
2023-04-09T03:22:55.866Z,2.30
2023-04-09T03:25:22.823Z,2.40
2023-04-09T03:27:49.761Z,2.40
2023-04-09T03:30:16.816Z,2.40
2023-04-09T03:32:43.762Z,2.40
2023-04-09T03:35:10.747Z,2.40
2023-04-09T03:37:37.698Z,2.50
2023-04-09T03:40:05.066Z,2.40
2023-04-09T03:42:31.990Z,2.40
2023-04-09T03:44:59.035Z,2.30
2023-04-09T03:47:26.085Z,2.30
2023-04-09T03:49:53.006Z,2.30
2023-04-09T03:52:20.055Z,2.30
2023-04-09T03:54:47.015Z,2.20
2023-04-09T03:57:14.081Z,2.20
2023-04-09T03:59:41.105Z,2.30
2023-04-09T04:02:08.157Z,2.30
2023-04-09T04:04:35.458Z,2.20
2023-04-09T04:07:04.010Z,2.30
2023-04-09T04:09:30.963Z,2.30
2023-04-09T04:11:58.988Z,2.30
2023-04-09T04:14:26.069Z,2.20
2023-04-09T04:16:53.008Z,2.30
2023-04-09T04:19:19.869Z,2.30
2023-04-09T04:21:46.831Z,2.30
2023-04-09T04:24:13.696Z,2.30
2023-04-09T04:26:40.665Z,2.30
2023-04-09T04:29:07.680Z,2.30
2023-04-09T04:31:34.718Z,2.40
2023-04-09T04:34:01.649Z,2.40
2023-04-09T04:36:28.738Z,2.40
2023-04-09T04:38:55.632Z,2.40
2023-04-09T04:41:22.671Z,2.50
2023-04-09T04:43:49.664Z,2.50
2023-04-09T04:46:16.706Z,2.60
2023-04-09T04:48:43.691Z,2.60
2023-04-09T04:51:10.852Z,2.60
2023-04-09T04:53:37.750Z,2.70
2023-04-09T04:56:04.926Z,2.70
2023-04-09T04:58:31.939Z,2.80
2023-04-09T05:01:00.465Z,2.90
2023-04-09T05:03:27.713Z,3.00
2023-04-09T05:05:54.912Z,3.00
2023-04-09T05:08:21.885Z,3.10
2023-04-09T05:10:48.867Z,3.10
2023-04-09T05:13:16.017Z,3.20
2023-04-09T05:15:42.987Z,3.30
2023-04-09T05:18:09.956Z,3.40
2023-04-09T05:20:37.745Z,3.40
2023-04-09T05:23:04.826Z,3.50
2023-04-09T05:25:31.867Z,3.50
2023-04-09T05:27:58.868Z,3.50
2023-04-09T05:30:25.928Z,3.60
2023-04-09T05:32:52.886Z,3.60
2023-04-09T05:35:19.941Z,3.60
2023-04-09T05:37:46.974Z,3.70
2023-04-09T05:40:14.884Z,3.70
2023-04-09T05:42:41.832Z,3.70
2023-04-09T05:45:09.586Z,3.70
2023-04-09T05:47:36.617Z,3.70
2023-04-09T05:50:04.505Z,3.80
2023-04-09T05:52:31.512Z,3.80
2023-04-09T05:54:58.418Z,3.90
2023-04-09T05:57:25.503Z,3.80
2023-04-09T05:59:52.465Z,3.70
2023-04-09T06:02:19.416Z,3.80
2023-04-09T06:04:46.623Z,3.90
2023-04-09T06:07:13.643Z,4.00
2023-04-09T06:09:40.701Z,4.00
2023-04-09T06:12:07.675Z,4.20
2023-04-09T06:14:34.730Z,4.20
2023-04-09T06:17:01.697Z,4.20
2023-04-09T06:19:29.135Z,4.30
2023-04-09T06:21:56.428Z,4.50
2023-04-09T06:24:23.520Z,4.70
2023-04-09T06:26:50.602Z,4.70
2023-04-09T06:29:17.595Z,5.00
2023-04-09T06:31:44.608Z,5.00
2023-04-09T06:34:11.733Z,5.10
2023-04-09T06:36:40.470Z,5.00
2023-04-09T06:39:07.640Z,4.80
2023-04-09T06:41:34.657Z,4.70
2023-04-09T06:44:01.767Z,4.70
2023-04-09T06:46:32.126Z,5.00
2023-04-09T06:48:59.133Z,4.80
2023-04-09T06:51:27.143Z,4.90
2023-04-09T06:53:54.526Z,4.80
2023-04-09T06:56:22.079Z,4.80
2023-04-09T06:58:49.012Z,4.80
2023-04-09T07:01:17.458Z,5.00
2023-04-09T07:03:44.929Z,5.10
2023-04-09T07:06:12.015Z,5.00
2023-04-09T07:08:38.884Z,5.00
2023-04-09T07:11:05.873Z,5.20
2023-04-09T07:13:33.469Z,5.30
2023-04-09T07:16:00.828Z,5.40
2023-04-09T07:18:27.856Z,5.40
2023-04-09T07:20:55.337Z,5.60
2023-04-09T07:23:22.917Z,5.70
2023-04-09T07:25:50.043Z,5.90
2023-04-09T07:28:20.031Z,5.90
2023-04-09T07:30:49.389Z,5.90
2023-04-09T07:33:16.557Z,6.10
2023-04-09T07:35:43.800Z,6.00
2023-04-09T07:38:13.551Z,6.30
2023-04-09T07:40:42.065Z,6.10
2023-04-09T07:43:12.481Z,6.20
2023-04-09T07:45:40.911Z,6.40
2023-04-09T07:48:13.532Z,6.40
2023-04-09T07:50:40.463Z,6.40
2023-04-09T07:53:11.974Z,6.30
2023-04-09T07:55:41.639Z,6.20
2023-04-09T07:58:12.176Z,6.30
2023-04-09T08:00:44.018Z,6.40
2023-04-09T08:03:13.543Z,6.50
2023-04-09T08:05:56.214Z,6.60
2023-04-09T08:08:23.325Z,6.60
2023-04-09T08:10:50.805Z,6.60
2023-04-09T08:13:20.659Z,6.50
2023-04-09T08:15:47.822Z,6.50
2023-04-09T08:18:14.723Z,6.50
2023-04-09T08:20:48.114Z,6.60
2023-04-09T08:23:15.258Z,6.80
2023-04-09T08:25:42.116Z,6.80
2023-04-09T08:28:09.078Z,6.90
2023-04-09T08:30:36.487Z,6.90
2023-04-09T08:33:03.765Z,7.10
2023-04-09T08:35:34.094Z,7.10
2023-04-09T08:38:03.793Z,7.20
2023-04-09T08:40:36.042Z,7.20
2023-04-09T08:43:09.141Z,7.30
2023-04-09T08:45:36.748Z,7.30
2023-04-09T08:48:05.223Z,7.40
2023-04-09T08:50:34.268Z,7.50
2023-04-09T08:53:06.540Z,7.80
2023-04-09T08:55:37.616Z,7.90
2023-04-09T08:58:10.654Z,8.30
2023-04-09T09:00:38.093Z,8.30
2023-04-09T09:03:10.159Z,8.80
2023-04-09T09:05:40.023Z,9.00
2023-04-09T09:08:09.720Z,9.30
2023-04-09T09:10:46.619Z,9.50
2023-04-09T09:13:27.572Z,9.40
2023-04-09T09:16:11.605Z,10.30
2023-04-09T09:18:43.211Z,10.50
2023-04-09T09:21:17.880Z,10.00
2023-04-09T09:23:45.998Z,10.70
2023-04-09T09:26:30.413Z,10.40
2023-04-09T09:29:01.400Z,10.60
2023-04-09T09:31:28.459Z,10.50
2023-04-09T09:33:55.881Z,10.30
2023-04-09T09:36:34.043Z,10.70
2023-04-09T09:39:10.188Z,10.90
2023-04-09T09:41:37.674Z,11.10
2023-04-09T09:44:07.304Z,11.20
2023-04-09T09:46:42.402Z,10.80
2023-04-09T09:49:09.718Z,10.50
2023-04-09T09:51:39.749Z,10.60
2023-04-09T09:54:09.296Z,11.20
2023-04-09T09:56:39.127Z,11.40
2023-04-09T09:59:28.538Z,11.80
2023-04-09T10:02:05.870Z,11.90
2023-04-09T10:04:36.972Z,12.80
2023-04-09T10:07:07.736Z,12.10
2023-04-09T10:09:38.009Z,12.40
2023-04-09T10:12:07.485Z,12.40
2023-04-09T10:14:36.212Z,12.60
2023-04-09T10:17:04.520Z,12.00
2023-04-09T10:19:35.567Z,11.80
2023-04-09T10:22:09.950Z,12.00
2023-04-09T10:24:37.115Z,11.30
2023-04-09T10:27:16.480Z,11.10
2023-04-09T10:29:49.084Z,10.80
2023-04-09T10:32:21.858Z,11.70
2023-04-09T10:34:50.750Z,11.50
2023-04-09T10:37:27.016Z,12.20
2023-04-09T10:39:54.166Z,12.10
2023-04-09T10:42:30.705Z,11.70
2023-04-09T10:45:12.288Z,11.50
2023-04-09T10:47:41.349Z,11.60
2023-04-09T10:50:18.942Z,11.70
2023-04-09T10:52:46.402Z,11.70
2023-04-09T10:55:48.798Z,11.70
2023-04-09T10:58:16.051Z,11.20
2023-04-09T11:00:46.967Z,10.90
2023-04-09T11:03:26.167Z,11.00
2023-04-09T11:05:59.121Z,11.20
2023-04-09T11:08:30.348Z,11.40
2023-04-09T11:10:58.612Z,11.40
2023-04-09T11:13:26.191Z,11.20
2023-04-09T11:15:54.591Z,11.30
2023-04-09T11:18:25.848Z,11.20
2023-04-09T11:21:01.287Z,11.20
2023-04-09T11:23:28.653Z,11.50
2023-04-09T11:25:56.277Z,11.40
2023-04-09T11:28:24.471Z,11.40
2023-04-09T11:30:52.217Z,11.30
2023-04-09T11:33:20.233Z,11.30
2023-04-09T11:35:49.763Z,11.10
2023-04-09T11:38:19.846Z,11.70
2023-04-09T11:40:50.437Z,11.40
2023-04-09T11:43:18.083Z,11.10
2023-04-09T11:45:48.442Z,11.40
2023-04-09T11:48:18.578Z,11.30
2023-04-09T11:50:46.860Z,10.90
2023-04-09T11:53:21.334Z,11.00
2023-04-09T11:55:51.548Z,11.30
2023-04-09T11:58:18.816Z,11.40
2023-04-09T12:00:48.415Z,11.40
2023-04-09T12:03:16.890Z,11.10
2023-04-09T12:05:50.988Z,11.50
2023-04-09T12:08:26.603Z,11.50
2023-04-09T12:10:54.294Z,11.50
2023-04-09T12:13:21.806Z,11.50
2023-04-09T12:15:50.172Z,11.40
2023-04-09T12:18:17.525Z,11.60
2023-04-09T12:20:47.523Z,11.50
2023-04-09T12:23:14.756Z,11.70
2023-04-09T12:25:43.892Z,11.40
2023-04-09T12:28:18.296Z,11.50
2023-04-09T12:30:46.122Z,11.30
2023-04-09T12:33:13.085Z,11.00
2023-04-09T12:35:40.148Z,11.00
2023-04-09T12:38:07.212Z,10.80
2023-04-09T12:40:35.699Z,10.80
2023-04-09T12:43:03.135Z,10.80
2023-04-09T12:45:31.136Z,11.20
2023-04-09T12:47:58.686Z,11.70
2023-04-09T12:50:25.737Z,11.90
2023-04-09T12:52:55.621Z,12.10
2023-04-09T12:55:25.023Z,12.40
2023-04-09T12:57:52.090Z,12.10
2023-04-09T13:00:19.224Z,11.90
2023-04-09T13:02:46.549Z,12.00
2023-04-09T13:05:13.680Z,11.90
2023-04-09T13:07:42.822Z,12.60
2023-04-09T13:10:10.673Z,13.30
2023-04-09T13:12:37.643Z,13.20
2023-04-09T13:15:07.733Z,13.50
2023-04-09T13:17:34.863Z,12.10
2023-04-09T13:20:01.918Z,12.20
2023-04-09T13:22:29.007Z,12.60
2023-04-09T13:24:55.979Z,12.30
2023-04-09T13:27:22.983Z,12.30
2023-04-09T13:29:49.983Z,12.20
2023-04-09T13:32:18.344Z,12.10
2023-04-09T13:34:45.587Z,12.60
2023-04-09T13:37:12.498Z,12.40
2023-04-09T13:39:39.464Z,12.90
2023-04-09T13:42:13.585Z,13.00
2023-04-09T13:44:44.946Z,13.30
2023-04-09T13:47:13.458Z,12.90
2023-04-09T13:49:41.442Z,12.90
2023-04-09T13:52:09.522Z,12.60
2023-04-09T13:54:37.015Z,12.40
2023-04-09T13:57:04.223Z,11.80
2023-04-09T13:59:31.625Z,11.20
2023-04-09T14:01:58.882Z,11.00
2023-04-09T14:04:29.328Z,11.10
2023-04-09T14:06:57.618Z,11.30
2023-04-09T14:09:24.627Z,11.10
2023-04-09T14:11:51.692Z,11.00
2023-04-09T14:14:19.996Z,11.10
2023-04-09T14:16:48.485Z,10.90
2023-04-09T14:19:15.553Z,10.90
2023-04-09T14:21:42.704Z,10.90
2023-04-09T14:24:09.624Z,11.20
2023-04-09T14:26:37.383Z,11.20
2023-04-09T14:29:04.528Z,11.10
2023-04-09T14:31:31.460Z,11.00
2023-04-09T14:33:58.593Z,11.10
2023-04-09T14:36:27.209Z,11.20
2023-04-09T14:38:58.109Z,11.10
2023-04-09T14:41:25.286Z,11.30
2023-04-09T14:43:52.500Z,11.60
2023-04-09T14:46:20.294Z,11.50
2023-04-09T14:48:47.391Z,11.50
2023-04-09T14:51:14.517Z,11.30
2023-04-09T14:53:41.593Z,11.20
2023-04-09T14:56:08.628Z,11.20
2023-04-09T14:58:36.474Z,11.10
2023-04-09T15:01:04.429Z,11.10
2023-04-09T15:03:31.482Z,11.20
2023-04-09T15:05:59.756Z,11.20
2023-04-09T15:08:26.744Z,11.00
2023-04-09T15:10:53.633Z,10.90
2023-04-09T15:13:20.824Z,10.80
2023-04-09T15:15:47.803Z,10.90
2023-04-09T15:18:14.806Z,10.90
2023-04-09T15:20:44.696Z,10.70
2023-04-09T15:23:13.990Z,10.70
2023-04-09T15:25:40.891Z,10.80
2023-04-09T15:28:17.347Z,10.80
2023-04-09T15:30:44.335Z,10.80
2023-04-09T15:33:12.429Z,10.90
2023-04-09T15:35:39.560Z,10.90
2023-04-09T15:38:06.483Z,11.10
2023-04-09T15:40:33.462Z,11.10
2023-04-09T15:43:03.472Z,11.10
2023-04-09T15:45:30.435Z,10.90
2023-04-09T15:47:57.494Z,10.70
2023-04-09T15:50:24.923Z,10.80
2023-04-09T15:52:51.859Z,10.70
2023-04-09T15:55:22.533Z,10.60
2023-04-09T15:57:50.201Z,10.40
2023-04-09T16:00:17.249Z,10.40
2023-04-09T16:02:44.291Z,10.40
2023-04-09T16:05:11.478Z,10.40
2023-04-09T16:07:39.750Z,10.30
2023-04-09T16:10:09.834Z,10.40
2023-04-09T16:12:36.904Z,10.30
2023-04-09T16:15:03.897Z,10.10
2023-04-09T16:17:30.981Z,10.10
2023-04-09T16:19:58.381Z,10.00
2023-04-09T16:22:25.503Z,9.90
2023-04-09T16:24:52.587Z,9.90
2023-04-09T16:27:19.724Z,10.00
2023-04-09T16:29:48.980Z,9.90
2023-04-09T16:32:16.061Z,9.90
2023-04-09T16:34:46.042Z,9.80
2023-04-09T16:37:13.216Z,9.80
2023-04-09T16:39:40.260Z,9.80
2023-04-09T16:42:07.192Z,9.70
2023-04-09T16:44:34.201Z,9.80
2023-04-09T16:47:08.362Z,9.80
2023-04-09T16:49:35.494Z,9.80
2023-04-09T16:52:02.400Z,9.70
2023-04-09T16:54:29.392Z,9.80
2023-04-09T16:56:57.550Z,9.60
2023-04-09T16:59:32.499Z,9.50
2023-04-09T17:01:59.768Z,9.40
2023-04-09T17:04:27.383Z,9.30
2023-04-09T17:06:54.394Z,9.30
2023-04-09T17:09:21.414Z,9.20
2023-04-09T17:11:51.472Z,9.20
2023-04-09T17:14:18.662Z,9.10
2023-04-09T17:16:47.285Z,9.00
2023-04-09T17:19:14.661Z,8.90
2023-04-09T17:21:44.039Z,8.80
2023-04-09T17:24:11.016Z,8.80
2023-04-09T17:26:37.931Z,8.70
2023-04-09T17:29:07.738Z,8.60
2023-04-09T17:31:38.432Z,8.60
2023-04-09T17:34:05.492Z,8.50
2023-04-09T17:36:32.614Z,8.40
2023-04-09T17:38:59.516Z,8.40
2023-04-09T17:41:27.764Z,8.40
2023-04-09T17:43:57.372Z,8.40
2023-04-09T17:46:25.718Z,8.30
2023-04-09T17:48:53.485Z,8.30
2023-04-09T17:51:20.866Z,8.20
2023-04-09T17:53:47.771Z,8.10
2023-04-09T17:56:17.164Z,8.20
2023-04-09T17:58:44.942Z,8.20
2023-04-09T18:01:13.534Z,8.10
2023-04-09T18:03:42.770Z,8.10
2023-04-09T18:06:10.103Z,8.20
2023-04-09T18:08:37.582Z,8.20
2023-04-09T18:11:12.740Z,8.10
2023-04-09T18:13:40.527Z,8.10
2023-04-09T18:16:12.362Z,8.10
2023-04-09T18:18:39.584Z,8.10
2023-04-09T18:21:06.857Z,8.00
2023-04-09T18:23:33.932Z,8.00
2023-04-09T18:26:01.131Z,7.90
2023-04-09T18:28:28.245Z,7.80
2023-04-09T18:30:55.280Z,7.90
2023-04-09T18:33:22.222Z,7.90
2023-04-09T18:35:49.272Z,7.80
2023-04-09T18:38:16.318Z,7.80
2023-04-09T18:40:44.325Z,7.70
2023-04-09T18:43:12.513Z,7.70
2023-04-09T18:45:39.795Z,7.60
2023-04-09T18:48:08.201Z,7.80
2023-04-09T18:50:41.321Z,7.80
2023-04-09T18:53:08.256Z,7.60
2023-04-09T18:55:38.354Z,7.60
2023-04-09T18:58:12.708Z,7.50
2023-04-09T19:00:39.980Z,7.50
2023-04-09T19:03:07.340Z,7.50
2023-04-09T19:05:35.515Z,7.50
2023-04-09T19:08:04.374Z,7.60
2023-04-09T19:10:32.898Z,7.60
2023-04-09T19:12:59.964Z,7.50
2023-04-09T19:15:27.170Z,7.40
2023-04-09T19:17:54.257Z,7.30
2023-04-09T19:20:21.745Z,7.30
2023-04-09T19:22:57.359Z,7.40
2023-04-09T19:25:25.933Z,7.30
2023-04-09T19:27:54.307Z,7.30
2023-04-09T19:30:21.382Z,7.30
2023-04-09T19:32:48.473Z,7.30
2023-04-09T19:35:15.604Z,7.20
2023-04-09T19:37:42.637Z,7.20
2023-04-09T19:40:10.286Z,7.10
2023-04-09T19:42:37.198Z,7.00
2023-04-09T19:45:04.369Z,7.00
2023-04-09T19:47:31.411Z,7.00
2023-04-09T19:49:58.388Z,6.90
2023-04-09T19:52:26.022Z,6.80
2023-04-09T19:54:56.694Z,6.90
2023-04-09T19:57:23.686Z,6.80
2023-04-09T19:59:52.304Z,6.80
2023-04-09T20:02:19.435Z,6.80
2023-04-09T20:04:46.525Z,6.80
2023-04-09T20:07:13.588Z,6.70
2023-04-09T20:09:42.533Z,6.60
2023-04-09T20:12:10.209Z,6.60
2023-04-09T20:14:38.307Z,6.60
2023-04-09T20:17:06.724Z,6.60
2023-04-09T20:19:33.657Z,6.50
2023-04-09T20:22:00.827Z,6.50
2023-04-09T20:24:28.449Z,6.60
2023-04-09T20:26:56.313Z,6.60
2023-04-09T20:29:23.351Z,6.50
2023-04-09T20:31:50.391Z,6.50
2023-04-09T20:34:17.344Z,6.40
2023-04-09T20:36:44.649Z,6.30
2023-04-09T20:39:11.784Z,6.30
2023-04-09T20:41:38.846Z,6.40
2023-04-09T20:44:06.260Z,6.30
2023-04-09T20:46:33.234Z,6.30
2023-04-09T20:49:01.626Z,6.30
2023-04-09T20:51:28.759Z,6.10
2023-04-09T20:53:55.775Z,6.10
2023-04-09T20:56:23.002Z,6.10
2023-04-09T20:58:49.913Z,6.10
2023-04-09T21:01:18.404Z,6.10
2023-04-09T21:03:45.450Z,5.90
2023-04-09T21:06:12.550Z,5.90
2023-04-09T21:08:42.828Z,5.90
2023-04-09T21:11:10.272Z,5.90
2023-04-09T21:13:53.124Z,5.80
2023-04-09T21:16:21.451Z,5.80
2023-04-09T21:18:48.992Z,5.80
2023-04-09T21:21:19.097Z,5.80
2023-04-09T21:23:46.236Z,5.70
2023-04-09T21:26:14.181Z,5.70
2023-04-09T21:28:41.119Z,5.60
2023-04-09T21:31:12.091Z,5.70
2023-04-09T21:33:39.380Z,5.70
2023-04-09T21:36:08.115Z,5.60
2023-04-09T21:38:35.691Z,5.40
2023-04-09T21:41:02.908Z,5.30
2023-04-09T21:43:30.438Z,5.30
2023-04-09T21:45:57.825Z,5.30
2023-04-09T21:48:26.425Z,5.30
2023-04-09T21:50:53.396Z,5.30
2023-04-09T21:53:20.523Z,5.30
2023-04-09T21:55:47.488Z,5.30
2023-04-09T21:58:14.463Z,5.30
2023-04-09T22:00:41.632Z,5.10
2023-04-09T22:03:08.755Z,5.00
2023-04-09T22:05:35.933Z,5.10
2023-04-09T22:08:03.152Z,5.10
2023-04-09T22:10:30.107Z,5.10
2023-04-09T22:12:57.115Z,5.20
2023-04-09T22:15:24.099Z,5.20
2023-04-09T22:17:51.159Z,5.10
2023-04-09T22:20:18.134Z,4.80
2023-04-09T22:22:48.865Z,4.70
2023-04-09T22:25:15.963Z,4.70
2023-04-09T22:27:43.897Z,4.60
2023-04-09T22:30:11.367Z,4.50
2023-04-09T22:32:38.333Z,4.40
2023-04-09T22:35:05.793Z,4.60
2023-04-09T22:37:32.833Z,4.60
2023-04-09T22:39:59.746Z,4.60
2023-04-09T22:42:27.386Z,4.70
2023-04-09T22:44:54.437Z,4.60
2023-04-09T22:47:21.437Z,4.50
2023-04-09T22:49:52.789Z,4.50
2023-04-09T22:52:19.869Z,4.50
2023-04-09T22:54:46.937Z,4.40
2023-04-09T22:57:13.849Z,4.20
2023-04-09T22:59:41.130Z,4.00
2023-04-09T23:02:08.517Z,3.90
2023-04-09T23:04:35.795Z,3.80
2023-04-09T23:07:02.971Z,3.70
2023-04-09T23:09:32.767Z,3.70
2023-04-09T23:11:59.657Z,3.80
2023-04-09T23:14:26.873Z,3.80
2023-04-09T23:16:53.893Z,3.80
2023-04-09T23:19:20.864Z,3.80
2023-04-09T23:21:47.873Z,3.80
2023-04-09T23:24:14.862Z,3.80
2023-04-09T23:26:41.798Z,3.70
2023-04-09T23:29:08.814Z,3.70
2023-04-09T23:31:35.875Z,3.80
2023-04-09T23:34:02.801Z,3.80
2023-04-09T23:36:29.777Z,3.90
2023-04-09T23:38:56.750Z,3.80
2023-04-09T23:41:23.728Z,3.90
2023-04-09T23:43:51.568Z,3.90
2023-04-09T23:46:18.745Z,3.90
2023-04-09T23:48:45.664Z,3.90
2023-04-09T23:51:19.589Z,3.80
2023-04-09T23:53:46.646Z,3.80
2023-04-09T23:56:14.525Z,3.80
2023-04-09T23:58:42.622Z,3.70
